Clifford, PA

7:47 PM EDT on September 02, 2015 (GMT -0400)
Lenoxville | | Change Station
CLOSE
Current Station
Personal Weather Station
Location: Nicholson, PA
Elevation: 1064 ft
Nearby Weather Stations

Elev 1064 ft 41.66 °N, 75.63 °W | Updated 2 minutes ago

Clear
Clear
71.6 °F
Feels Like 71 °F
N
0.0
Wind Variable Wind from South
Gusts 0.0 mph

Today
High -- | Low -- °F
--% Chance of Precip.
Yesterday
High -- | Low -- °F
Precip. -- in
6:29 AM 7:34 PM
Waning Gibbous, 76% visible
Pressure 29.93 in
Visibility 6.0 miles
Clouds Clear
Heat Index 71 °F
Dew Point 66 °F
Humidity 83%
Rainfall 0.00 in
Snow Depth Not available.
UV 0 out of 12
Pollen 9.30 out of 12
Air Quality Not available.
Flu Activity Not available.
METAR KAVP 022254Z AUTO 30003KT 6SM HZ CLR 29/18 A2995 RMK AO2 SLP133 T02890178 $
Pressure 29.93 in
Visibility 6.0 miles
Clouds Clear
Heat Index 71 °F
Dew Point 66 °F
Humidity 83%
Rainfall 0.00 in
Snow Depth Not available.
UV 0 out of 12
Pollen 9.30 out of 12
Air Quality Not available.
Flu Activity Not available.
METAR KAVP 022254Z AUTO 30003KT 6SM HZ CLR 29/18 A2995 RMK AO2 SLP133 T02890178 $

10-Day Weather Forecast

×

Almanac

Astronomy

Sep. 02, 2015 Rise Set
Actual Time
Civil Twilight
Nautical Twilight
Astronomical Twilight
Moon
Length of Visible Light
Length of Day
Tomorrow will be .
, % of the Moon is Illuminated

Today's Extremes

State Highs State Lows

Community

WunderPhotos

Upload Photos

1,851,841 photos uploaded!

WunderBlogs® & News

Nearby

Air Quality

  Air Quality AQ Index Pollutant
Not available.

Snow Depth

Station Depth Elevation

Earthquake Activity

City Distance Mag. Time & Date
Minimum magnitude displayed is 2.5.

Coastal Water Temperatures

Place Temperature

Stations

Nearby Weather Stations

Station Location Temp. Windchill Dew Point Humidity Wind Precip. Elev Updated Type